createdAt,value
2018-06-25T00:00:22.079Z,17.50
2018-06-25T00:03:02.913Z,17.60
2018-06-25T00:05:41.840Z,17.60
2018-06-25T00:11:04.898Z,17.60
2018-06-25T00:13:45.308Z,17.60
2018-06-25T00:16:25.276Z,17.60
2018-06-25T00:19:07.008Z,17.60
2018-06-25T00:21:49.441Z,17.60
2018-06-25T00:24:29.680Z,17.70
2018-06-25T00:27:07.904Z,17.60
2018-06-25T00:29:50.391Z,17.60
2018-06-25T00:32:33.348Z,17.60
2018-06-25T00:35:13.225Z,17.60
2018-06-25T00:37:52.695Z,17.60
2018-06-25T00:40:32.826Z,17.60
2018-06-25T00:43:11.986Z,17.60
2018-06-25T00:45:51.968Z,17.60
2018-06-25T00:48:32.956Z,17.60
2018-06-25T00:51:14.286Z,17.70
2018-06-25T00:53:53.755Z,17.70
2018-06-25T00:56:33.789Z,17.70
2018-06-25T00:59:19.997Z,17.60
2018-06-25T01:02:01.531Z,17.70
2018-06-25T01:04:42.191Z,17.60
2018-06-25T01:07:23.415Z,17.60
2018-06-25T01:10:01.449Z,17.60
2018-06-25T01:12:42.101Z,17.70
2018-06-25T01:15:22.628Z,17.60
2018-06-25T01:18:01.068Z,17.60
2018-06-25T01:20:41.347Z,17.50
2018-06-25T01:23:21.556Z,17.50
2018-06-25T01:26:02.138Z,17.50
2018-06-25T01:28:39.748Z,17.50
2018-06-25T01:31:19.231Z,17.50
2018-06-25T01:33:58.200Z,17.50
2018-06-25T01:36:37.893Z,17.50
2018-06-25T01:39:16.058Z,17.50
2018-06-25T01:44:39.436Z,17.50
2018-06-25T01:47:21.162Z,17.50
2018-06-25T01:49:59.425Z,17.50
2018-06-25T01:52:38.653Z,17.40
2018-06-25T01:58:00.258Z,17.40
2018-06-25T02:00:40.451Z,17.40
2018-06-25T02:03:21.453Z,17.30
2018-06-25T02:05:59.122Z,17.30
2018-06-25T02:08:39.032Z,17.30
2018-06-25T02:14:01.147Z,17.20
2018-06-25T02:16:44.127Z,17.20
2018-06-25T02:19:24.513Z,17.20
2018-06-25T02:22:02.942Z,17.20
2018-06-25T02:24:42.491Z,17.10
2018-06-25T02:27:21.964Z,17.10
2018-06-25T02:30:02.774Z,17.10
2018-06-25T02:32:43.365Z,17.10
2018-06-25T02:35:24.268Z,17.10
2018-06-25T02:38:03.220Z,17.10
2018-06-25T02:40:42.247Z,17.10
2018-06-25T02:43:22.537Z,17.10
2018-06-25T02:46:02.378Z,17.00
2018-06-25T02:48:44.845Z,16.90
2018-06-25T02:51:23.697Z,16.90
2018-06-25T02:54:03.836Z,16.90
2018-06-25T02:56:43.075Z,16.90
2018-06-25T02:59:22.997Z,17.00
2018-06-25T03:04:45.682Z,16.90
2018-06-25T03:07:26.684Z,16.90
2018-06-25T03:10:06.758Z,16.90
2018-06-25T03:12:48.019Z,16.80
2018-06-25T03:15:27.953Z,16.90
2018-06-25T03:18:09.937Z,16.90
2018-06-25T03:20:50.300Z,17.00
2018-06-25T03:23:32.720Z,17.00
2018-06-25T03:28:54.601Z,17.00
2018-06-25T03:31:33.757Z,17.00
2018-06-25T03:34:13.569Z,17.00
2018-06-25T03:36:55.283Z,17.00
2018-06-25T03:39:35.639Z,17.00
2018-06-25T03:42:16.824Z,17.00
2018-06-25T03:44:57.367Z,17.00
2018-06-25T03:47:37.786Z,17.00
2018-06-25T03:50:17.909Z,17.00
2018-06-25T03:52:58.283Z,17.00
2018-06-25T03:55:37.542Z,17.00
2018-06-25T03:58:18.319Z,17.00
2018-06-25T04:00:58.424Z,17.00
2018-06-25T04:03:38.488Z,17.00
2018-06-25T04:06:17.039Z,17.00
2018-06-25T04:08:59.048Z,16.90
2018-06-25T04:11:38.851Z,17.00
2018-06-25T04:14:18.969Z,17.10
2018-06-25T04:16:57.805Z,17.10
2018-06-25T04:19:38.476Z,17.20
2018-06-25T04:22:16.559Z,17.20
2018-06-25T04:24:55.919Z,17.30
2018-06-25T04:27:35.776Z,17.20
2018-06-25T04:33:03.813Z,17.30
2018-06-25T04:35:44.265Z,17.30
2018-06-25T04:38:27.496Z,17.30
2018-06-25T04:41:05.738Z,17.20
2018-06-25T04:43:46.961Z,17.30
2018-06-25T04:46:27.767Z,17.30
2018-06-25T04:49:08.419Z,17.30
2018-06-25T04:51:48.362Z,17.40
2018-06-25T04:57:13.199Z,17.40
2018-06-25T04:59:56.551Z,17.50
2018-06-25T05:02:41.196Z,17.50
2018-06-25T05:05:20.638Z,17.50
2018-06-25T05:08:00.690Z,17.50
2018-06-25T05:10:41.550Z,17.50
2018-06-25T05:13:20.133Z,17.50
2018-06-25T05:15:58.286Z,17.50
2018-06-25T05:21:27.757Z,17.50
2018-06-25T05:24:09.594Z,17.60
2018-06-25T05:26:51.172Z,17.60
2018-06-25T05:32:14.075Z,17.70
2018-06-25T05:34:54.399Z,17.70
2018-06-25T05:40:18.970Z,17.80
2018-06-25T05:42:58.800Z,17.70
2018-06-25T05:48:26.094Z,17.60
2018-06-25T05:53:51.599Z,17.70
2018-06-25T05:56:31.238Z,17.60
2018-06-25T05:59:13.987Z,17.60
2018-06-25T06:01:54.735Z,17.70
2018-06-25T06:04:36.212Z,17.70
2018-06-25T06:07:19.797Z,17.60
2018-06-25T06:10:01.690Z,17.70
2018-06-25T06:12:40.966Z,17.70
2018-06-25T06:15:21.784Z,17.70
2018-06-25T06:18:02.170Z,18.00
2018-06-25T06:23:23.418Z,18.10
2018-06-25T06:28:43.764Z,18.20
2018-06-25T06:31:24.799Z,18.20
2018-06-25T06:34:07.756Z,18.50
2018-06-25T06:36:47.813Z,18.50
2018-06-25T06:39:29.290Z,18.70
2018-06-25T06:42:09.839Z,18.70
2018-06-25T06:44:48.714Z,18.50
2018-06-25T06:47:30.585Z,18.50
2018-06-25T06:50:12.390Z,18.60
2018-06-25T06:52:51.223Z,18.60
2018-06-25T06:55:34.143Z,18.60
2018-06-25T06:58:15.362Z,18.80
2018-06-25T07:09:08.719Z,19.00
2018-06-25T07:11:53.944Z,19.10
2018-06-25T07:14:36.660Z,19.20
2018-06-25T07:17:17.114Z,19.20
2018-06-25T07:19:57.162Z,19.20
2018-06-25T07:22:37.689Z,19.40
2018-06-25T07:28:03.750Z,19.30
2018-06-25T07:30:44.386Z,19.20
2018-06-25T07:33:28.160Z,19.20
2018-06-25T07:36:07.092Z,19.30
2018-06-25T07:38:47.862Z,19.50
2018-06-25T07:41:27.359Z,19.50
2018-06-25T07:44:05.893Z,19.50
2018-06-25T07:46:43.761Z,19.80
2018-06-25T07:49:24.455Z,19.80
2018-06-25T07:52:05.262Z,19.90
2018-06-25T07:57:30.904Z,19.30
2018-06-25T08:00:12.311Z,19.30
2018-06-25T08:02:52.871Z,19.80
2018-06-25T08:08:15.695Z,19.70
2018-06-25T08:10:55.261Z,19.80
2018-06-25T08:13:39.507Z,19.80
2018-06-25T08:16:17.988Z,19.90
2018-06-25T08:24:25.671Z,20.60
2018-06-25T08:27:00.809Z,21.00
2018-06-25T08:29:40.507Z,21.40
2018-06-25T08:35:02.750Z,21.70
2018-06-25T08:37:44.916Z,21.70
2018-06-25T08:40:25.381Z,21.90
2018-06-25T08:43:05.310Z,21.80
2018-06-25T08:51:11.466Z,23.00
2018-06-25T08:53:40.257Z,22.30
2018-06-25T08:56:08.082Z,21.90
2018-06-25T08:58:34.974Z,21.80
2018-06-25T09:01:02.515Z,22.10
2018-06-25T09:03:32.121Z,21.90
2018-06-25T09:06:01.686Z,21.70
2018-06-25T09:08:29.384Z,21.80
2018-06-25T09:10:57.182Z,21.80
2018-06-25T09:13:25.659Z,21.90
2018-06-25T09:15:53.721Z,22.00
2018-06-25T09:18:22.603Z,22.10
2018-06-25T09:20:50.930Z,22.40
2018-06-25T09:23:31.271Z,22.90
2018-06-25T09:25:59.452Z,23.50
2018-06-25T09:28:29.713Z,23.60
2018-06-25T09:30:58.477Z,23.70
2018-06-25T09:33:27.485Z,23.40
2018-06-25T09:35:55.387Z,23.40
2018-06-25T09:38:23.386Z,23.60
2018-06-25T09:40:51.343Z,24.00
2018-06-25T09:43:19.926Z,24.10
2018-06-25T09:45:47.997Z,24.00
2018-06-25T09:48:15.073Z,24.40
2018-06-25T09:50:42.809Z,25.20
2018-06-25T09:53:12.899Z,24.80
2018-06-25T09:55:41.079Z,24.60
2018-06-25T09:58:09.728Z,24.10
2018-06-25T10:00:36.713Z,23.70
2018-06-25T10:03:04.457Z,23.40
2018-06-25T10:05:32.771Z,23.40
2018-06-25T10:08:01.856Z,23.40
2018-06-25T10:10:29.854Z,23.40
2018-06-25T10:12:56.910Z,23.50
2018-06-25T10:15:23.781Z,23.70
2018-06-25T10:17:57.196Z,23.70
2018-06-25T10:20:25.606Z,23.40
2018-06-25T10:22:52.597Z,23.80
2018-06-25T10:25:19.554Z,24.40
2018-06-25T10:27:46.513Z,25.40
2018-06-25T10:30:14.221Z,26.10
2018-06-25T10:32:41.082Z,26.10
2018-06-25T10:35:08.014Z,26.20
2018-06-25T10:37:34.973Z,26.70
2018-06-25T10:40:01.925Z,27.50
2018-06-25T10:42:28.884Z,27.80
2018-06-25T10:44:55.922Z,28.10
2018-06-25T10:47:22.873Z,28.10
2018-06-25T10:49:49.750Z,27.60
2018-06-25T10:52:16.718Z,27.10
2018-06-25T10:54:43.694Z,26.60
2018-06-25T10:57:10.551Z,26.20
2018-06-25T10:59:37.678Z,25.80
2018-06-25T11:02:04.871Z,25.40
2018-06-25T11:04:31.749Z,24.90
2018-06-25T11:06:59.434Z,25.50
2018-06-25T11:09:26.472Z,25.40
2018-06-25T11:11:53.435Z,25.70
2018-06-25T11:14:20.322Z,25.60
2018-06-25T11:16:47.554Z,25.40
2018-06-25T11:19:14.532Z,25.50
2018-06-25T11:21:41.405Z,26.20
2018-06-25T11:24:15.453Z,27.00
2018-06-25T11:26:52.094Z,27.40
2018-06-25T11:29:19.871Z,27.70
2018-06-25T11:31:46.837Z,27.40
2018-06-25T11:34:16.276Z,27.30
2018-06-25T11:36:50.339Z,27.20
2018-06-25T11:39:17.350Z,26.40
2018-06-25T11:41:44.538Z,26.50
2018-06-25T11:44:11.482Z,26.20
2018-06-25T11:46:38.521Z,25.50
2018-06-25T11:49:05.428Z,25.20
2018-06-25T11:51:32.416Z,25.00
2018-06-25T11:53:59.472Z,25.00
2018-06-25T11:56:34.719Z,25.60
2018-06-25T11:59:01.712Z,25.60
2018-06-25T12:01:28.621Z,25.20
2018-06-25T12:03:55.519Z,25.20
2018-06-25T12:06:23.254Z,24.90
2018-06-25T12:08:50.105Z,24.90
2018-06-25T12:11:18.358Z,24.90
2018-06-25T12:13:46.539Z,24.70
2018-06-25T12:16:14.048Z,24.60
2018-06-25T12:18:40.988Z,24.10
2018-06-25T12:21:07.969Z,24.50
2018-06-25T12:23:45.366Z,23.70
2018-06-25T12:26:19.706Z,23.80
2018-06-25T12:28:47.680Z,24.80
2018-06-25T12:31:23.407Z,24.80
2018-06-25T12:34:00.507Z,25.10
2018-06-25T12:36:32.977Z,25.90
2018-06-25T12:39:08.057Z,25.90
2018-06-25T12:41:35.180Z,25.40
2018-06-25T12:44:12.855Z,25.30
2018-06-25T12:49:36.241Z,26.50
2018-06-25T12:52:18.515Z,26.40
2018-06-25T12:54:58.587Z,26.40
2018-06-25T12:57:39.696Z,26.20
2018-06-25T13:00:18.054Z,26.30
2018-06-25T13:02:45.817Z,26.20
2018-06-25T13:05:16.152Z,25.50
2018-06-25T13:07:45.116Z,25.40
2018-06-25T13:10:12.173Z,25.10
2018-06-25T13:12:39.090Z,24.80
2018-06-25T13:15:05.986Z,25.20
2018-06-25T13:17:33.720Z,25.90
2018-06-25T13:20:00.704Z,25.90
2018-06-25T13:22:27.605Z,26.20
2018-06-25T13:24:55.471Z,26.20
2018-06-25T13:27:23.624Z,25.90
2018-06-25T13:29:50.709Z,25.70
2018-06-25T13:32:29.798Z,25.20
2018-06-25T13:35:11.325Z,25.00
2018-06-25T13:37:39.284Z,25.40
2018-06-25T13:40:07.420Z,25.00
2018-06-25T13:42:34.431Z,24.60
2018-06-25T13:45:15.013Z,24.50
2018-06-25T13:47:42.010Z,24.20
2018-06-25T13:50:08.904Z,24.10
2018-06-25T13:52:35.831Z,25.00
2018-06-25T13:55:02.858Z,25.70
2018-06-25T13:57:31.058Z,26.00
2018-06-25T13:59:58.092Z,26.40
2018-06-25T14:02:27.568Z,26.40
2018-06-25T14:04:59.495Z,26.70
2018-06-25T14:07:31.211Z,27.10
2018-06-25T14:09:59.630Z,27.30
2018-06-25T14:12:28.140Z,27.60
2018-06-25T14:14:55.345Z,27.40
2018-06-25T14:17:22.343Z,27.20
2018-06-25T14:19:51.402Z,27.10
2018-06-25T14:22:20.297Z,26.50
2018-06-25T14:24:51.690Z,26.20
2018-06-25T14:27:18.706Z,26.00
2018-06-25T14:29:45.780Z,25.90
2018-06-25T14:32:12.771Z,26.00
2018-06-25T14:34:39.641Z,26.20
2018-06-25T14:37:07.971Z,26.60
2018-06-25T14:39:37.490Z,26.80
2018-06-25T14:42:04.676Z,26.80
2018-06-25T14:44:32.296Z,26.40
2018-06-25T14:46:59.233Z,26.40
2018-06-25T14:49:27.872Z,25.20
2018-06-25T14:51:54.950Z,24.80
2018-06-25T14:54:22.380Z,25.10
2018-06-25T14:56:51.248Z,25.00
2018-06-25T14:59:19.671Z,25.30
2018-06-25T15:01:50.668Z,25.40
2018-06-25T15:04:18.725Z,25.40
2018-06-25T15:06:52.716Z,25.50
2018-06-25T15:09:20.943Z,25.90
2018-06-25T15:11:48.620Z,25.90
2018-06-25T15:14:18.141Z,26.10
2018-06-25T15:16:47.446Z,25.80
2018-06-25T15:19:15.844Z,25.10
2018-06-25T15:21:44.462Z,25.40
2018-06-25T15:24:12.125Z,25.70
2018-06-25T15:26:39.541Z,25.60
2018-06-25T15:29:11.452Z,26.00
2018-06-25T15:31:40.530Z,26.20
2018-06-25T15:34:07.452Z,26.40
2018-06-25T15:36:34.410Z,26.30
2018-06-25T15:39:03.576Z,26.30
2018-06-25T15:41:30.552Z,26.60
2018-06-25T15:43:57.429Z,26.50
2018-06-25T15:46:24.500Z,26.20
2018-06-25T15:48:51.413Z,26.20
2018-06-25T15:51:18.484Z,25.80
2018-06-25T15:53:45.441Z,25.60
2018-06-25T15:56:26.156Z,25.60
2018-06-25T15:59:03.114Z,25.50
2018-06-25T16:01:30.502Z,25.50
2018-06-25T16:04:06.045Z,25.60
2018-06-25T16:06:42.374Z,25.80
2018-06-25T16:11:55.435Z,26.10
2018-06-25T16:14:23.605Z,26.00
2018-06-25T16:16:54.760Z,26.00
2018-06-25T16:19:38.047Z,25.80
2018-06-25T16:22:06.725Z,25.80
2018-06-25T16:24:35.749Z,25.60
2018-06-25T16:27:03.632Z,25.50
2018-06-25T16:29:45.184Z,25.50
2018-06-25T16:32:14.406Z,25.20
2018-06-25T16:34:41.852Z,25.20
2018-06-25T16:37:08.829Z,25.00
2018-06-25T16:39:42.962Z,25.10
2018-06-25T16:47:56.099Z,25.30
2018-06-25T16:50:38.702Z,25.30
2018-06-25T16:53:26.260Z,25.30
2018-06-25T16:56:13.172Z,25.30
2018-06-25T16:58:58.780Z,25.30
2018-06-25T17:01:27.121Z,25.20
2018-06-25T17:03:54.105Z,25.20
2018-06-25T17:06:21.041Z,25.10
2018-06-25T17:08:47.991Z,25.00
2018-06-25T17:11:14.957Z,25.00
2018-06-25T17:13:41.981Z,25.00
2018-06-25T17:16:08.941Z,24.90
2018-06-25T17:18:35.814Z,24.80
2018-06-25T17:21:03.460Z,24.70
2018-06-25T17:23:43.236Z,24.70
2018-06-25T17:26:23.596Z,24.70
2018-06-25T17:29:03.939Z,24.60
2018-06-25T17:31:42.659Z,24.50
2018-06-25T17:34:21.555Z,24.60
2018-06-25T17:37:03.954Z,24.40
2018-06-25T17:39:44.827Z,24.20
2018-06-25T17:42:25.253Z,24.20
2018-06-25T17:45:05.959Z,24.20
2018-06-25T17:47:45.654Z,24.10
2018-06-25T17:50:25.301Z,24.10
2018-06-25T17:53:06.929Z,24.00
2018-06-25T17:58:31.677Z,23.80
2018-06-25T18:01:10.929Z,23.80
2018-06-25T18:03:51.086Z,23.70
2018-06-25T18:06:29.869Z,23.60
2018-06-25T18:09:10.844Z,23.50
2018-06-25T18:11:50.964Z,23.40
2018-06-25T18:14:27.486Z,23.40
2018-06-25T18:17:05.623Z,23.30
2018-06-25T18:22:26.388Z,23.10
2018-06-25T18:25:06.391Z,23.10
2018-06-25T18:27:46.572Z,23.00
2018-06-25T18:30:28.501Z,23.10
2018-06-25T18:33:08.259Z,23.00
2018-06-25T18:35:45.847Z,23.10
2018-06-25T18:38:28.412Z,22.60
2018-06-25T18:41:09.753Z,22.60
2018-06-25T18:43:49.795Z,22.70
2018-06-25T18:46:25.118Z,22.70
2018-06-25T18:49:09.933Z,22.70
2018-06-25T18:51:48.067Z,22.60
2018-06-25T18:54:30.503Z,22.60
2018-06-25T18:57:09.995Z,22.50
2018-06-25T18:59:49.539Z,22.20
2018-06-25T19:02:31.152Z,22.20
2018-06-25T19:05:11.553Z,22.10
2018-06-25T19:07:53.578Z,22.10
2018-06-25T19:10:33.780Z,22.10
2018-06-25T19:13:12.759Z,22.00
2018-06-25T19:15:52.372Z,21.90
2018-06-25T19:18:32.516Z,21.90
2018-06-25T19:21:11.340Z,21.80
2018-06-25T19:23:50.662Z,21.80
2018-06-25T19:26:29.348Z,21.80
2018-06-25T19:29:08.759Z,21.70
2018-06-25T19:31:49.756Z,21.60
2018-06-25T19:34:29.776Z,21.60
2018-06-25T19:37:10.323Z,21.50
2018-06-25T19:39:51.539Z,21.50
2018-06-25T19:42:31.539Z,21.40
2018-06-25T19:45:12.684Z,21.40
2018-06-25T19:47:53.279Z,21.40
2018-06-25T19:50:35.939Z,21.20
2018-06-25T19:53:15.177Z,21.10
2018-06-25T19:55:56.111Z,21.10
2018-06-25T19:58:35.357Z,21.00
2018-06-25T20:01:15.767Z,21.00
2018-06-25T20:03:54.535Z,21.00
2018-06-25T20:06:33.220Z,21.00
2018-06-25T20:09:14.286Z,20.90
2018-06-25T20:11:55.388Z,20.90
2018-06-25T20:14:36.527Z,20.80
2018-06-25T20:17:15.283Z,20.80
2018-06-25T20:19:56.127Z,20.80
2018-06-25T20:22:36.238Z,20.80
2018-06-25T20:25:17.408Z,20.80
2018-06-25T20:27:55.644Z,20.70
2018-06-25T20:30:35.414Z,20.70
2018-06-25T20:33:15.052Z,20.70
2018-06-25T20:35:55.790Z,20.70
2018-06-25T20:38:33.920Z,20.70
2018-06-25T20:41:11.205Z,20.70
2018-06-25T20:43:53.719Z,20.70
2018-06-25T20:46:34.572Z,20.70
2018-06-25T20:49:15.061Z,20.70
2018-06-25T20:51:56.157Z,20.70
2018-06-25T20:54:36.517Z,20.70
2018-06-25T20:57:15.875Z,20.70
2018-06-25T20:59:43.969Z,20.70
2018-06-25T21:02:11.880Z,20.70
2018-06-25T21:04:38.894Z,20.70
2018-06-25T21:07:06.681Z,20.70
2018-06-25T21:09:33.917Z,20.80
2018-06-25T21:12:14.602Z,20.70
2018-06-25T21:14:56.740Z,20.70
2018-06-25T21:17:24.637Z,20.70
2018-06-25T21:20:05.219Z,20.70
2018-06-25T21:22:32.970Z,20.70
2018-06-25T21:25:10.623Z,20.70
2018-06-25T21:27:37.507Z,20.70
2018-06-25T21:30:08.005Z,20.60
2018-06-25T21:32:37.672Z,20.50
2018-06-25T21:35:04.637Z,20.50
2018-06-25T21:37:38.326Z,20.50
2018-06-25T21:40:14.360Z,20.50
2018-06-25T21:42:42.126Z,20.40
2018-06-25T21:45:09.153Z,20.30
2018-06-25T21:47:37.702Z,20.30
2018-06-25T21:50:05.654Z,20.20
2018-06-25T21:52:34.438Z,20.20
2018-06-25T21:55:08.937Z,20.20
2018-06-25T21:57:41.560Z,20.10
2018-06-25T22:00:08.565Z,20.00
2018-06-25T22:02:37.893Z,19.90
2018-06-25T22:05:08.388Z,19.70
2018-06-25T22:07:35.271Z,19.60
2018-06-25T22:10:03.069Z,19.30
2018-06-25T22:12:30.045Z,19.30
2018-06-25T22:15:00.449Z,19.10
2018-06-25T22:17:29.930Z,19.20
2018-06-25T22:19:56.848Z,19.10
2018-06-25T22:22:23.693Z,19.00
2018-06-25T22:24:50.689Z,19.00
2018-06-25T22:27:17.644Z,19.00
2018-06-25T22:29:44.580Z,19.00
2018-06-25T22:32:11.557Z,18.80
2018-06-25T22:34:38.584Z,18.80
2018-06-25T22:37:05.424Z,18.70
2018-06-25T22:39:32.529Z,18.70
2018-06-25T22:41:59.649Z,18.60
2018-06-25T22:44:26.520Z,18.50
2018-06-25T22:46:53.512Z,18.40
2018-06-25T22:49:20.430Z,18.40
2018-06-25T22:51:48.082Z,18.30
2018-06-25T22:54:15.782Z,18.30
2018-06-25T22:56:42.709Z,18.30
2018-06-25T22:59:10.404Z,18.20
2018-06-25T23:01:37.317Z,18.20
2018-06-25T23:04:05.044Z,18.20
2018-06-25T23:06:31.912Z,18.10
2018-06-25T23:08:58.836Z,18.10
2018-06-25T23:11:25.813Z,18.10
2018-06-25T23:13:53.427Z,18.20
2018-06-25T23:16:20.375Z,18.20
2018-06-25T23:18:47.321Z,18.20
2018-06-25T23:21:14.229Z,18.30
2018-06-25T23:23:41.161Z,18.30
2018-06-25T23:26:08.893Z,18.40
2018-06-25T23:28:35.753Z,18.30
2018-06-25T23:31:02.675Z,18.30
2018-06-25T23:33:29.601Z,18.40
2018-06-25T23:35:56.571Z,18.40
2018-06-25T23:38:23.500Z,18.40
2018-06-25T23:40:50.393Z,18.50
2018-06-25T23:43:18.062Z,18.50
2018-06-25T23:45:45.679Z,18.50
2018-06-25T23:48:12.620Z,18.50
2018-06-25T23:50:39.501Z,18.60
2018-06-25T23:53:06.474Z,18.50
2018-06-25T23:55:33.436Z,18.60
2018-06-25T23:58:00.373Z,18.60
